sensor_id;sensor_type;location;lat;lon;timestamp;pressure;altitude;pressure_sealevel;temperature;humidity
76044;BME280;64740;34.694;33.088;2024-03-02T00:04:52;1036;;;20.7;22.8
76044;BME280;64740;34.694;33.088;2024-03-02T00:09:40;1036;;;20.8;23
76044;BME280;64740;34.694;33.088;2024-03-02T00:14:48;1035.9;;;20.8;22.7
76044;BME280;64740;34.694;33.088;2024-03-02T00:20:00;1035.8;;;20.8;22.3
76044;BME280;64740;34.694;33.088;2024-03-02T00:24:52;1035.6;;;20.7;22.3
76044;BME280;64740;34.694;33.088;2024-03-02T00:29:45;1035.6;;;20.7;22.5
76044;BME280;64740;34.694;33.088;2024-03-02T00:35:04;1035.4;;;20.7;22.8
76044;BME280;64740;34.694;33.088;2024-03-02T00:40:00;1035.4;;;20.6;22.4
76044;BME280;64740;34.694;33.088;2024-03-02T00:44:52;1035.5;;;20.6;22.5
76044;BME280;64740;34.694;33.088;2024-03-02T00:49:34;1035.5;;;20.6;22.6
76044;BME280;64740;34.694;33.088;2024-03-02T00:54:28;1035.4;;;20.5;22.3
76044;BME280;64740;34.694;33.088;2024-03-02T00:59:34;1035.2;;;20.5;22.5
76044;BME280;64740;34.694;33.088;2024-03-02T01:04:34;1035.2;;;20.5;22.8
76044;BME280;64740;34.694;33.088;2024-03-02T01:09:34;1035.2;;;20.6;22.5
76044;BME280;64740;34.694;33.088;2024-03-02T01:14:34;1035.2;;;20.5;22.4
76044;BME280;64740;34.694;33.088;2024-03-02T01:19:48;1035.2;;;20.5;22.8
76044;BME280;64740;34.694;33.088;2024-03-02T01:24:40;1035.2;;;20.6;22.9
76044;BME280;64740;34.694;33.088;2024-03-02T01:30:00;1035.2;;;20.6;22.8
76044;BME280;64740;34.694;33.088;2024-03-02T01:34:52;1035.1;;;20.6;22.4
76044;BME280;64740;34.694;33.088;2024-03-02T01:39:48;1035.1;;;20.6;22.4
76044;BME280;64740;34.694;33.088;2024-03-02T01:44:28;1035.1;;;20.6;23
76044;BME280;64740;34.694;33.088;2024-03-02T01:49:48;1035;;;20.6;23.2
76044;BME280;64740;34.694;33.088;2024-03-02T01:54:52;1035.1;;;20.6;23.2
76044;BME280;64740;34.694;33.088;2024-03-02T01:59:40;1035.1;;;20.6;23.2
76044;BME280;64740;34.694;33.088;2024-03-02T02:04:38;1035.2;;;20.6;23.4
76044;BME280;64740;34.694;33.088;2024-03-02T02:09:52;1035.3;;;20.5;23.5
76044;BME280;64740;34.694;33.088;2024-03-02T02:14:48;1035.3;;;20.6;23.6
76044;BME280;64740;34.694;33.088;2024-03-02T02:20:00;1035.3;;;20.6;23.4
76044;BME280;64740;34.694;33.088;2024-03-02T02:24:52;1035.3;;;20.6;23.5
76044;BME280;64740;34.694;33.088;2024-03-02T02:29:34;1035.3;;;20.6;23.6
76044;BME280;64740;34.694;33.088;2024-03-02T02:34:34;1035.4;;;20.6;23.7
76044;BME280;64740;34.694;33.088;2024-03-02T02:39:42;1035.3;;;20.6;23.7
76044;BME280;64740;34.694;33.088;2024-03-02T02:44:28;1035.4;;;20.5;23.8
76044;BME280;64740;34.694;33.088;2024-03-02T02:49:52;1035.4;;;20.6;24
76044;BME280;64740;34.694;33.088;2024-03-02T02:54:48;1035.4;;;20.5;23.9
76044;BME280;64740;34.694;33.088;2024-03-02T02:59:35;1035.4;;;20.5;23.9
76044;BME280;64740;34.694;33.088;2024-03-02T03:04:42;1035.4;;;20.5;24
76044;BME280;64740;34.694;33.088;2024-03-02T03:09:53;1035.3;;;20.5;24.3
76044;BME280;64740;34.694;33.088;2024-03-02T03:14:45;1035.3;;;20.5;24.4
76044;BME280;64740;34.694;33.088;2024-03-02T03:19:40;1035.3;;;20.5;24.5
76044;BME280;64740;34.694;33.088;2024-03-02T03:24:30;1035.3;;;20.5;24.5
76044;BME280;64740;34.694;33.088;2024-03-02T03:29:52;1035.3;;;20.5;24.2
76044;BME280;64740;34.694;33.088;2024-03-02T03:34:28;1035.2;;;20.4;23.6
76044;BME280;64740;34.694;33.088;2024-03-02T03:39:28;1035.2;;;20.4;24.2
76044;BME280;64740;34.694;33.088;2024-03-02T03:44:52;1035.1;;;20.5;24.3
76044;BME280;64740;34.694;33.088;2024-03-02T03:49:54;1035.1;;;20.5;24.4
76044;BME280;64740;34.694;33.088;2024-03-02T03:54:36;1035.1;;;20.5;24.3
76044;BME280;64740;34.694;33.088;2024-03-02T03:59:53;1035.1;;;20.5;24.4
76044;BME280;64740;34.694;33.088;2024-03-02T04:04:28;1035.1;;;20.5;24.5
76044;BME280;64740;34.694;33.088;2024-03-02T04:09:34;1035.1;;;20.5;24.4
76044;BME280;64740;34.694;33.088;2024-03-02T04:14:44;1035.1;;;20.4;24.4
76044;BME280;64740;34.694;33.088;2024-03-02T04:19:28;1035.2;;;20.4;24.3
76044;BME280;64740;34.694;33.088;2024-03-02T04:24:35;1035.3;;;20.5;24.2
76044;BME280;64740;34.694;33.088;2024-03-02T04:30:00;1035.2;;;20.5;24.1
76044;BME280;64740;34.694;33.088;2024-03-02T04:34:46;1035.2;;;20.5;24
76044;BME280;64740;34.694;33.088;2024-03-02T04:39:54;1035.2;;;20.5;24.1
76044;BME280;64740;34.694;33.088;2024-03-02T04:45:01;1035.2;;;20.5;23.9
76044;BME280;64740;34.694;33.088;2024-03-02T04:49:34;1035.2;;;20.5;23.8
76044;BME280;64740;34.694;33.088;2024-03-02T04:55:03;1035.2;;;20.5;23.6
76044;BME280;64740;34.694;33.088;2024-03-02T05:00:01;1035.2;;;20.5;23.4
76044;BME280;64740;34.694;33.088;2024-03-02T05:04:52;1035.2;;;20.5;23.5
76044;BME280;64740;34.694;33.088;2024-03-02T05:09:40;1035.2;;;20.6;23.4
76044;BME280;64740;34.694;33.088;2024-03-02T05:14:49;1035.3;;;20.6;23.5
76044;BME280;64740;34.694;33.088;2024-03-02T05:19:53;1035.3;;;20.7;23.7
76044;BME280;64740;34.694;33.088;2024-03-02T05:25:01;1035.3;;;20.7;23.6
76044;BME280;64740;34.694;33.088;2024-03-02T05:29:44;1035.2;;;20.8;23.6
76044;BME280;64740;34.694;33.088;2024-03-02T05:35:01;1035.2;;;21;23.5
76044;BME280;64740;34.694;33.088;2024-03-02T05:39:29;1035.3;;;21.1;23.4
76044;BME280;64740;34.694;33.088;2024-03-02T05:44:35;1035.2;;;21.2;23.4
76044;BME280;64740;34.694;33.088;2024-03-02T05:49:35;1035.1;;;21.3;23.4
76044;BME280;64740;34.694;33.088;2024-03-02T05:54:29;1035.1;;;21.4;23.2
76044;BME280;64740;34.694;33.088;2024-03-02T05:59:39;1035.2;;;21.6;22.9
76044;BME280;64740;34.694;33.088;2024-03-02T06:04:37;1035.1;;;21.7;23
76044;BME280;64740;34.694;33.088;2024-03-02T06:09:31;1035.1;;;21.8;22.6
76044;BME280;64740;34.694;33.088;2024-03-02T06:14:28;1035.1;;;21.9;22.1
76044;BME280;64740;34.694;33.088;2024-03-02T06:20:01;1035.1;;;22.1;22
76044;BME280;64740;34.694;33.088;2024-03-02T06:24:35;1035.1;;;22.3;22.1
76044;BME280;64740;34.694;33.088;2024-03-02T06:29:51;1035.1;;;22.6;21.6
76044;BME280;64740;34.694;33.088;2024-03-02T06:34:37;1035.1;;;22.8;21.5
76044;BME280;64740;34.694;33.088;2024-03-02T06:39:55;1035;;;23;21.1
76044;BME280;64740;34.694;33.088;2024-03-02T06:44:35;1035;;;23.1;20.5
76044;BME280;64740;34.694;33.088;2024-03-02T06:50:03;1035;;;23.3;20.2
76044;BME280;64740;34.694;33.088;2024-03-02T06:54:45;1035;;;23.5;20.3
76044;BME280;64740;34.694;33.088;2024-03-02T07:00:03;1034.9;;;23.7;20.8
76044;BME280;64740;34.694;33.088;2024-03-02T07:04:37;1034.9;;;23.8;20.6
76044;BME280;64740;34.694;33.088;2024-03-02T07:10:01;1034.8;;;23.9;21.1
76044;BME280;64740;34.694;33.088;2024-03-02T07:14:47;1034.8;;;24.1;21.1
76044;BME280;64740;34.694;33.088;2024-03-02T07:19:30;1034.8;;;24.3;21.2
76044;BME280;64740;34.694;33.088;2024-03-02T07:24:39;1034.9;;;24.4;21.4
76044;BME280;64740;34.694;33.088;2024-03-02T07:29:29;1034.9;;;24.5;21.2
76044;BME280;64740;34.694;33.088;2024-03-02T07:34:29;1034.9;;;24.5;21.4
76044;BME280;64740;34.694;33.088;2024-03-02T07:39:37;1034.9;;;24.6;20.9
76044;BME280;64740;34.694;33.088;2024-03-02T07:44:53;1034.9;;;24.7;21
76044;BME280;64740;34.694;33.088;2024-03-02T07:49:44;1034.8;;;24.8;21.2
76044;BME280;64740;34.694;33.088;2024-03-02T07:55:03;1034.7;;;24.9;21.5
76044;BME280;64740;34.694;33.088;2024-03-02T07:59:43;1034.6;;;25;22.5
76044;BME280;64740;34.694;33.088;2024-03-02T08:05:03;1034.6;;;25.2;22.7
76044;BME280;64740;34.694;33.088;2024-03-02T08:09:43;1034.6;;;25.2;21.9
76044;BME280;64740;34.694;33.088;2024-03-02T08:14:55;1034.6;;;25.3;22.4
76044;BME280;64740;34.694;33.088;2024-03-02T08:19:43;1034.6;;;25.4;22.4
76044;BME280;64740;34.694;33.088;2024-03-02T08:24:51;1034.5;;;25.4;22.3
76044;BME280;64740;34.694;33.088;2024-03-02T08:30:03;1034.5;;;25.4;21.8
76044;BME280;64740;34.694;33.088;2024-03-02T08:34:55;1034.6;;;25.4;22.2
76044;BME280;64740;34.694;33.088;2024-03-02T08:39:29;1034.6;;;25.5;22.4
76044;BME280;64740;34.694;33.088;2024-03-02T08:45:03;1034.6;;;25.6;22
76044;BME280;64740;34.694;33.088;2024-03-02T08:50:03;1034.6;;;25.7;23.6
76044;BME280;64740;34.694;33.088;2024-03-02T08:54:53;1034.6;;;25.6;24.8
76044;BME280;64740;34.694;33.088;2024-03-02T09:00:01;1034.6;;;25.5;24.5
76044;BME280;64740;34.694;33.088;2024-03-02T09:04:41;1034.6;;;25.5;25
76044;BME280;64740;34.694;33.088;2024-03-02T09:09:41;1034.6;;;25.5;24.8
76044;BME280;64740;34.694;33.088;2024-03-02T09:14:29;1034.5;;;25.5;24.8
76044;BME280;64740;34.694;33.088;2024-03-02T09:19:29;1034.5;;;25.5;25.4
76044;BME280;64740;34.694;33.088;2024-03-02T09:24:41;1034.5;;;25.6;25.3
76044;BME280;64740;34.694;33.088;2024-03-02T09:29:51;1034.4;;;25.6;26.5
76044;BME280;64740;34.694;33.088;2024-03-02T09:34:41;1034.4;;;25.7;26.8
76044;BME280;64740;34.694;33.088;2024-03-02T09:40:03;1034.3;;;25.8;27.3
76044;BME280;64740;34.694;33.088;2024-03-02T09:44:53;1034.2;;;25.9;27
76044;BME280;64740;34.694;33.088;2024-03-02T09:50:03;1034.2;;;26;26.7
76044;BME280;64740;34.694;33.088;2024-03-02T09:54:29;1034.2;;;26.1;27.4
76044;BME280;64740;34.694;33.088;2024-03-02T09:59:31;1034.2;;;26.1;29.6
76044;BME280;64740;34.694;33.088;2024-03-02T10:04:48;1034.1;;;26;32
76044;BME280;64740;34.694;33.088;2024-03-02T10:09:29;1034;;;25.9;33.2
76044;BME280;64740;34.694;33.088;2024-03-02T10:14:45;1033.9;;;25.9;33.4
76044;BME280;64740;34.694;33.088;2024-03-02T10:19:53;1033.8;;;25.8;33.6
76044;BME280;64740;34.694;33.088;2024-03-02T10:25:03;1033.7;;;25.8;33.8
76044;BME280;64740;34.694;33.088;2024-03-02T10:29:45;1033.6;;;25.7;34.2
76044;BME280;64740;34.694;33.088;2024-03-02T10:34:55;1033.6;;;25.7;34.3
76044;BME280;64740;34.694;33.088;2024-03-02T10:39:41;1033.4;;;25.8;34.6
76044;BME280;64740;34.694;33.088;2024-03-02T10:45:03;1033.4;;;25.9;34.8
76044;BME280;64740;34.694;33.088;2024-03-02T10:49:29;1033.3;;;26.1;34.7
76044;BME280;64740;34.694;33.088;2024-03-02T10:54:29;1033.3;;;26.3;34.4
76044;BME280;64740;34.694;33.088;2024-03-02T10:59:56;1033.2;;;26.5;33.7
76044;BME280;64740;34.694;33.088;2024-03-02T11:05:03;1033.2;;;26.7;33.9
76044;BME280;64740;34.694;33.088;2024-03-02T11:10:01;1033.2;;;26.9;33.7
76044;BME280;64740;34.694;33.088;2024-03-02T11:15:03;1033.2;;;27.2;33.6
76044;BME280;64740;34.694;33.088;2024-03-02T11:19:53;1033.2;;;27.4;33.3
76044;BME280;64740;34.694;33.088;2024-03-02T11:24:51;1033.1;;;27.7;33
76044;BME280;64740;34.694;33.088;2024-03-02T11:29:43;1033.1;;;28;32.7
76044;BME280;64740;34.694;33.088;2024-03-02T11:34:51;1033.1;;;28.2;32.6
76044;BME280;64740;34.694;33.088;2024-03-02T11:39:53;1033.1;;;28.5;32.5
76044;BME280;64740;34.694;33.088;2024-03-02T11:44:29;1033;;;28.7;32.3
76044;BME280;64740;34.694;33.088;2024-03-02T11:49:45;1033;;;28.7;32.2
76044;BME280;64740;34.694;33.088;2024-03-02T11:54:51;1033;;;28.9;32
76044;BME280;64740;34.694;33.088;2024-03-02T11:59:59;1033;;;29.1;32
76044;BME280;64740;34.694;33.088;2024-03-02T12:04:45;1033.1;;;29.2;32.1
76044;BME280;64740;34.694;33.088;2024-03-02T12:09:59;1033.1;;;29.2;32.2
76044;BME280;64740;34.694;33.088;2024-03-02T12:14:29;1033.1;;;29.2;32.5
76044;BME280;64740;34.694;33.088;2024-03-02T12:19:35;1033.1;;;29.4;32.4
76044;BME280;64740;34.694;33.088;2024-03-02T12:24:35;1033.2;;;29.7;32.2
76044;BME280;64740;34.694;33.088;2024-03-02T12:29:35;1033.1;;;29.9;32.1
76044;BME280;64740;34.694;33.088;2024-03-02T12:34:29;1033.2;;;30.2;32
76044;BME280;64740;34.694;33.088;2024-03-02T12:40:00;1033.1;;;30.3;31.7
76044;BME280;64740;34.694;33.088;2024-03-02T12:44:51;1033.1;;;30.5;31.8
76044;BME280;64740;34.694;33.088;2024-03-02T12:49:59;1033.1;;;30.6;31.5
76044;BME280;64740;34.694;33.088;2024-03-02T12:54:55;1033.2;;;30.7;31.1
76044;BME280;64740;34.694;33.088;2024-03-02T12:59:47;1033.1;;;30.8;31
76044;BME280;64740;34.694;33.088;2024-03-02T13:04:59;1033;;;31;30.9
76044;BME280;64740;34.694;33.088;2024-03-02T13:10:01;1032.9;;;31.1;30.7
76044;BME280;64740;34.694;33.088;2024-03-02T13:14:55;1032.9;;;31.2;30.4
76044;BME280;64740;34.694;33.088;2024-03-02T13:24:49;1033.1;;;31.3;30.3
76044;BME280;64740;34.694;33.088;2024-03-02T13:29:51;1033;;;31.3;30.1
76044;BME280;64740;34.694;33.088;2024-03-02T13:35:01;1033;;;31.3;29.9
76044;BME280;64740;34.694;33.088;2024-03-02T13:39:45;1033;;;31.4;29.8
76044;BME280;64740;34.694;33.088;2024-03-02T13:45:01;1033;;;31.4;30
76044;BME280;64740;34.694;33.088;2024-03-02T13:49:31;1033.1;;;31.3;30
76044;BME280;64740;34.694;33.088;2024-03-02T13:54:29;1033.1;;;31.4;30
76044;BME280;64740;34.694;33.088;2024-03-02T13:59:35;1033;;;31.3;30.2
76044;BME280;64740;34.694;33.088;2024-03-02T14:04:51;1033;;;31.3;30.1
76044;BME280;64740;34.694;33.088;2024-03-02T14:09:29;1033;;;31.3;30
76044;BME280;64740;34.694;33.088;2024-03-02T14:14:29;1033;;;31.2;30.1
76044;BME280;64740;34.694;33.088;2024-03-02T14:19:31;1033;;;31;30.1
76044;BME280;64740;34.694;33.088;2024-03-02T14:24:29;1032.9;;;31;29.7
76044;BME280;64740;34.694;33.088;2024-03-02T14:29:59;1033;;;31;29.7
76044;BME280;64740;34.694;33.088;2024-03-02T14:34:39;1032.9;;;30.9;30
76044;BME280;64740;34.694;33.088;2024-03-02T14:39:59;1032.9;;;30.7;30
76044;BME280;64740;34.694;33.088;2024-03-02T14:44:29;1032.9;;;30.5;30
76044;BME280;64740;34.694;33.088;2024-03-02T14:49:53;1032.9;;;30.3;30.4
76044;BME280;64740;34.694;33.088;2024-03-02T14:54:35;1032.9;;;30;31
76044;BME280;64740;34.694;33.088;2024-03-02T14:59:53;1033;;;29.7;31.8
76044;BME280;64740;34.694;33.088;2024-03-02T15:04:59;1033.1;;;29.2;32.5
76044;BME280;64740;34.694;33.088;2024-03-02T15:09:53;1033.2;;;28.8;33.2
76044;BME280;64740;34.694;33.088;2024-03-02T15:14:45;1033.3;;;28.1;34.1
76044;BME280;64740;34.694;33.088;2024-03-02T15:19:59;1033.4;;;27.5;35.3
76044;BME280;64740;34.694;33.088;2024-03-02T15:24:59;1033.5;;;26.9;36.4
76044;BME280;64740;34.694;33.088;2024-03-02T15:29:51;1033.6;;;26.3;37.5
76044;BME280;64740;34.694;33.088;2024-03-02T15:34:39;1033.7;;;25.9;38.7
76044;BME280;64740;34.694;33.088;2024-03-02T15:39:37;1033.8;;;25.5;39.5
76044;BME280;64740;34.694;33.088;2024-03-02T15:44:41;1033.9;;;25.2;40.4
76044;BME280;64740;34.694;33.088;2024-03-02T15:49:29;1034;;;24.9;41.1
76044;BME280;64740;34.694;33.088;2024-03-02T15:54:51;1034.1;;;24.7;41.4
76044;BME280;64740;34.694;33.088;2024-03-02T15:59:39;1034.1;;;24.5;41.7
76044;BME280;64740;34.694;33.088;2024-03-02T16:04:59;1034.1;;;24.4;41.7
76044;BME280;64740;34.694;33.088;2024-03-02T16:09:35;1034.2;;;24.3;41.5
76044;BME280;64740;34.694;33.088;2024-03-02T16:14:59;1034.2;;;24.2;41.4
76044;BME280;64740;34.694;33.088;2024-03-02T16:19:59;1034.2;;;24.1;41.1
76044;BME280;64740;34.694;33.088;2024-03-02T16:24:53;1034.3;;;23.9;40.4
76044;BME280;64740;34.694;33.088;2024-03-02T16:29:41;1034.3;;;23.8;39.7
76044;BME280;64740;34.694;33.088;2024-03-02T16:34:59;1034.3;;;23.7;39.6
76044;BME280;64740;34.694;33.088;2024-03-02T16:39:59;1034.4;;;23.5;40.5
76044;BME280;64740;34.694;33.088;2024-03-02T16:44:53;1034.4;;;23.3;41.4
76044;BME280;64740;34.694;33.088;2024-03-02T16:49:39;1034.4;;;23.2;42.2
76044;BME280;64740;34.694;33.088;2024-03-02T16:54:59;1034.4;;;23.1;42.6
76044;BME280;64740;34.694;33.088;2024-03-02T16:59:53;1034.5;;;23;42.7
76044;BME280;64740;34.694;33.088;2024-03-02T17:04:51;1034.3;;;22.9;42.4
76044;BME280;64740;34.694;33.088;2024-03-02T17:09:53;1034.3;;;22.8;42
76044;BME280;64740;34.694;33.088;2024-03-02T17:14:29;1034.3;;;22.8;41.7
76044;BME280;64740;34.694;33.088;2024-03-02T17:19:29;1034.3;;;22.7;41.6
76044;BME280;64740;34.694;33.088;2024-03-02T17:24:29;1034.2;;;22.7;41.3
76044;BME280;64740;34.694;33.088;2024-03-02T17:29:29;1034.2;;;22.7;40.8
76044;BME280;64740;34.694;33.088;2024-03-02T17:34:39;1034.2;;;22.7;40.4
76044;BME280;64740;34.694;33.088;2024-03-02T17:39:45;1034.1;;;22.7;40.2
76044;BME280;64740;34.694;33.088;2024-03-02T17:44:39;1034;;;22.7;39.8
76044;BME280;64740;34.694;33.088;2024-03-02T17:49:57;1034;;;22.7;39.7
76044;BME280;64740;34.694;33.088;2024-03-02T17:54:55;1034;;;22.7;39.3
76044;BME280;64740;34.694;33.088;2024-03-02T17:59:53;1034;;;22.7;38.8
76044;BME280;64740;34.694;33.088;2024-03-02T18:04:44;1034;;;22.6;38.5
76044;BME280;64740;34.694;33.088;2024-03-02T18:09:53;1034;;;22.6;38.6
76044;BME280;64740;34.694;33.088;2024-03-02T18:14:55;1034;;;22.6;38.6
76044;BME280;64740;34.694;33.088;2024-03-02T18:19:43;1033.9;;;22.5;38.5
76044;BME280;64740;34.694;33.088;2024-03-02T18:24:29;1034;;;22.5;38.5
76044;BME280;64740;34.694;33.088;2024-03-02T18:29:55;1034.1;;;22.4;38.7
76044;BME280;64740;34.694;33.088;2024-03-02T18:35:03;1034.4;;;22.3;39.2
76044;BME280;64740;34.694;33.088;2024-03-02T18:39:47;1034.4;;;22.3;39.2
76044;BME280;64740;34.694;33.088;2024-03-02T18:44:55;1034.5;;;22.1;39.4
76044;BME280;64740;34.694;33.088;2024-03-02T18:49:29;1034.5;;;22;39.5
76044;BME280;64740;34.694;33.088;2024-03-02T18:54:35;1034.5;;;21.9;39.6
76044;BME280;64740;34.694;33.088;2024-03-02T18:59:35;1034.4;;;21.9;39.6
76044;BME280;64740;34.694;33.088;2024-03-02T19:04:29;1034.3;;;21.9;39.8
76044;BME280;64740;34.694;33.088;2024-03-02T19:09:48;1034.2;;;22;40.2
76044;BME280;64740;34.694;33.088;2024-03-02T19:15:06;1034.5;;;21.9;39.9
76044;BME280;64740;34.694;33.088;2024-03-02T19:19:57;1034.5;;;21.9;39.9
76044;BME280;64740;34.694;33.088;2024-03-02T19:25:05;1034.5;;;21.8;40.1
76044;BME280;64740;34.694;33.088;2024-03-02T19:30:05;1034.6;;;21.7;40.4
76044;BME280;64740;34.694;33.088;2024-03-02T19:34:57;1034.6;;;21.7;40.4
76044;BME280;64740;34.694;33.088;2024-03-02T19:40:08;1034.8;;;21.6;40.8
76044;BME280;64740;34.694;33.088;2024-03-02T19:45:07;1034.8;;;21.5;40.5
76044;BME280;64740;34.694;33.088;2024-03-02T19:49:57;1034.8;;;21.5;40.5
76044;BME280;64740;34.694;33.088;2024-03-02T19:54:35;1034.9;;;21.5;40.4
76044;BME280;64740;34.694;33.088;2024-03-02T19:59:53;1034.9;;;21.4;40.3
76044;BME280;64740;34.694;33.088;2024-03-02T20:04:57;1034.8;;;21.4;40.3
76044;BME280;64740;34.694;33.088;2024-03-02T20:10:07;1034.7;;;21.5;40.1
76044;BME280;64740;34.694;33.088;2024-03-02T20:14:47;1034.7;;;21.5;40.1
76044;BME280;64740;34.694;33.088;2024-03-02T20:19:57;1034.6;;;21.5;39.8
76044;BME280;64740;34.694;33.088;2024-03-02T20:24:41;1034.5;;;21.4;39.8
76044;BME280;64740;34.694;33.088;2024-03-02T20:29:36;1034.6;;;21.4;40
76044;BME280;64740;34.694;33.088;2024-03-02T20:34:41;1034.6;;;21.3;40.4
76044;BME280;64740;34.694;33.088;2024-03-02T20:39:29;1034.7;;;21.2;41.1
76044;BME280;64740;34.694;33.088;2024-03-02T20:44:57;1034.9;;;21.1;41.8
76044;BME280;64740;34.694;33.088;2024-03-02T20:50:07;1034.8;;;21;43.2
76044;BME280;64740;34.694;33.088;2024-03-02T20:54:39;1034.8;;;21;43.2
76044;BME280;64740;34.694;33.088;2024-03-02T20:59:43;1034.8;;;20.9;43.5
76044;BME280;64740;34.694;33.088;2024-03-02T21:05:07;1034.8;;;20.9;43.5
76044;BME280;64740;34.694;33.088;2024-03-02T21:09:30;1034.8;;;20.9;43.5
76044;BME280;64740;34.694;33.088;2024-03-02T21:15:07;1034.8;;;20.8;42.7
76044;BME280;64740;34.694;33.088;2024-03-02T21:19:29;1034.8;;;20.8;42.7
76044;BME280;64740;34.694;33.088;2024-03-02T21:24:57;1034.8;;;20.8;42.5
76044;BME280;64740;34.694;33.088;2024-03-02T21:29:43;1034.8;;;20.7;43.2
76044;BME280;64740;34.694;33.088;2024-03-02T21:34:31;1034.8;;;20.7;43.6
76044;BME280;64740;34.694;33.088;2024-03-02T21:40:07;1034.9;;;20.6;44.1
76044;BME280;64740;34.694;33.088;2024-03-02T21:45:07;1034.9;;;20.6;44.3
76044;BME280;64740;34.694;33.088;2024-03-02T21:49:47;1034.9;;;20.6;44.3
76044;BME280;64740;34.694;33.088;2024-03-02T21:55:07;1035;;;20.5;44.3
76044;BME280;64740;34.694;33.088;2024-03-02T22:00:07;1035.1;;;20.5;44.2
76044;BME280;64740;34.694;33.088;2024-03-02T22:04:31;1035.1;;;20.5;44.2
76044;BME280;64740;34.694;33.088;2024-03-02T22:09:35;1035.1;;;20.4;44.3
76044;BME280;64740;34.694;33.088;2024-03-02T22:14:37;1035.1;;;20.4;44.7
76044;BME280;64740;34.694;33.088;2024-03-02T22:20:08;1035.1;;;20.3;45.4
76044;BME280;64740;34.694;33.088;2024-03-02T22:25:07;1035;;;20.2;45.7
76044;BME280;64740;34.694;33.088;2024-03-02T22:29:43;1035;;;20.2;45.7
76044;BME280;64740;34.694;33.088;2024-03-02T22:34:43;1035;;;20.1;45.9
76044;BME280;64740;34.694;33.088;2024-03-02T22:39:53;1035;;;20.1;46
76044;BME280;64740;34.694;33.088;2024-03-02T22:44:43;1034.9;;;20.1;46
76044;BME280;64740;34.694;33.088;2024-03-02T22:50:07;1035;;;20;46.1
76044;BME280;64740;34.694;33.088;2024-03-02T22:54:57;1035;;;20;46.1
76044;BME280;64740;34.694;33.088;2024-03-02T22:59:53;1035;;;20.1;46
76044;BME280;64740;34.694;33.088;2024-03-02T23:04:41;1035.1;;;20.1;46
76044;BME280;64740;34.694;33.088;2024-03-02T23:09:45;1035.2;;;20.1;46.2
76044;BME280;64740;34.694;33.088;2024-03-02T23:14:55;1035.2;;;20.1;46.3
76044;BME280;64740;34.694;33.088;2024-03-02T23:19:41;1035.2;;;20.1;46.5
76044;BME280;64740;34.694;33.088;2024-03-02T23:24:35;1035.2;;;20.1;46.5
76044;BME280;64740;34.694;33.088;2024-03-02T23:29:59;1035.2;;;20;46.7
76044;BME280;64740;34.694;33.088;2024-03-02T23:35:05;1035.1;;;20;46.7
76044;BME280;64740;34.694;33.088;2024-03-02T23:39:41;1035.1;;;20;46.7
76044;BME280;64740;34.694;33.088;2024-03-02T23:44:55;1035;;;20;46.6
76044;BME280;64740;34.694;33.088;2024-03-02T23:49:29;1035;;;20.1;46.5
76044;BME280;64740;34.694;33.088;2024-03-02T23:54:35;1035;;;20.1;46.4
76044;BME280;64740;34.694;33.088;2024-03-02T23:59:47;1035;;;20.1;46.4
